Time;durP1;ratioP1;P1;durP2;ratioP2;P2;SDS_P1;SDS_P2;PMS_P1;PMS_P2;Temp;Humidity;BMP_temperature;BMP_pressure;BME280_temperature;BME280_humidity;BME280_pressure;Samples;Min_cycle;Max_cycle;Signal;HPM_P1;HPM_P2
2022/04/01 00:00:10;;;;;;;12.65;9.77;;;4.00;99.90;;;;;;5056595;28;20151;-81
2022/04/01 00:02:39;;;;;;;9.05;7.78;;;4.00;99.90;;;;;;5056638;28;20532;-81
2022/04/01 00:05:06;;;;;;;9.80;8.18;;;4.00;99.90;;;;;;5055286;28;20032;-81
2022/04/01 00:07:33;;;;;;;9.02;7.38;;;3.90;99.90;;;;;;5056492;28;20040;-81
2022/04/01 00:09:59;;;;;;;8.00;7.10;;;3.90;99.90;;;;;;5055376;28;20029;-81
2022/04/01 00:12:24;;;;;;;6.95;5.47;;;3.90;99.90;;;;;;5056206;28;20104;-82
2022/04/01 00:14:51;;;;;;;6.55;4.93;;;3.90;99.90;;;;;;5056325;28;20484;-82
2022/04/01 00:17:16;;;;;;;5.50;4.45;;;3.80;99.90;;;;;;5056038;28;20033;-82
2022/04/01 00:19:42;;;;;;;6.30;4.63;;;3.80;99.90;;;;;;5056511;28;20483;-82
2022/04/01 00:22:08;;;;;;;8.63;5.00;;;3.80;99.90;;;;;;5056196;28;20508;-82
2022/04/01 00:24:34;;;;;;;4.80;4.00;;;3.90;99.90;;;;;;5055032;28;20495;-82
2022/04/01 00:27:00;;;;;;;4.38;3.97;;;3.80;99.90;;;;;;5055784;28;20033;-82
2022/04/01 00:29:26;;;;;;;4.63;4.13;;;3.70;99.90;;;;;;5054743;28;20017;-82
2022/04/01 00:31:58;;;;;;;4.68;3.85;;;3.60;99.90;;;;;;5056220;28;20033;-83
2022/04/01 00:34:28;;;;;;;7.18;4.20;;;3.70;99.90;;;;;;5056163;28;20385;-83
2022/04/01 00:36:55;;;;;;;5.55;3.67;;;3.50;99.90;;;;;;5055944;28;20207;-84
2022/04/01 00:39:22;;;;;;;6.68;3.67;;;3.50;99.90;;;;;;5054343;28;20047;-82
2022/04/01 00:41:49;;;;;;;3.78;3.38;;;3.50;99.90;;;;;;5054393;28;20061;-83
2022/04/01 00:44:23;;;;;;;3.92;3.30;;;3.60;99.90;;;;;;5054516;28;20513;-83
2022/04/01 00:46:51;;;;;;;4.38;3.22;;;3.30;99.90;;;;;;5054458;28;20040;-83
2022/04/01 00:49:18;;;;;;;5.22;4.22;;;3.40;99.90;;;;;;5055608;28;20044;-83
2022/04/01 00:51:46;;;;;;;5.38;4.20;;;3.40;99.90;;;;;;5054323;28;20025;-83
2022/04/01 00:54:12;;;;;;;5.82;4.78;;;3.40;99.90;;;;;;5054483;28;20029;-83
2022/04/01 00:56:39;;;;;;;5.15;4.15;;;3.30;99.90;;;;;;5053927;28;20040;-83
2022/04/01 00:59:06;;;;;;;4.68;4.18;;;3.30;99.90;;;;;;5055646;28;20440;-83
2022/04/01 01:01:35;;;;;;;5.55;4.15;;;3.20;99.90;;;;;;5054113;28;20017;-82
2022/04/01 01:04:07;;;;;;;4.97;3.72;;;3.10;99.90;;;;;;5054094;28;20441;-83
2022/04/01 01:06:38;;;;;;;6.13;3.85;;;3.10;99.90;;;;;;5055070;28;20365;-82
2022/04/01 01:09:04;;;;;;;4.72;3.90;;;3.10;99.90;;;;;;5054030;28;20087;-82
2022/04/01 01:11:32;;;;;;;8.48;3.78;;;3.10;99.90;;;;;;5053698;28;20124;-82
2022/04/01 01:13:59;;;;;;;7.55;3.85;;;3.10;99.90;;;;;;5053919;28;20079;-81
2022/04/01 01:16:25;;;;;;;6.05;4.80;;;3.00;99.90;;;;;;5053881;28;20424;-81
2022/04/01 01:19:04;;;;;;;6.38;4.53;;;2.90;99.90;;;;;;5055275;28;20033;-82
2022/04/01 01:21:31;;;;;;;5.90;4.45;;;2.80;99.90;;;;;;5054859;28;20040;-81
2022/04/01 01:24:00;;;;;;;4.13;3.22;;;2.90;99.90;;;;;;5053830;28;20477;-81
2022/04/01 01:26:27;;;;;;;3.80;3.20;;;2.90;99.90;;;;;;5052910;28;20037;-81
2022/04/01 01:28:55;;;;;;;4.18;3.10;;;3.00;99.90;;;;;;5037093;28;20028;-81
2022/04/01 01:31:21;;;;;;;3.42;3.10;;;2.90;99.90;;;;;;5054791;28;20020;-81
2022/04/01 01:33:48;;;;;;;4.65;3.30;;;2.80;99.90;;;;;;5053488;28;20079;-80
2022/04/01 01:36:13;;;;;;;5.95;3.80;;;2.80;99.90;;;;;;5054779;28;20017;-81
2022/04/01 01:38:39;;;;;;;4.80;3.25;;;2.80;99.90;;;;;;5053276;28;20056;-81
2022/04/01 01:41:05;;;;;;;3.80;3.08;;;2.80;99.90;;;;;;5054714;28;20505;-82
2022/04/01 01:43:30;;;;;;;4.15;3.13;;;2.80;99.90;;;;;;5054871;28;20075;-81
2022/04/01 01:45:57;;;;;;;4.40;3.47;;;2.70;99.90;;;;;;5053551;28;20055;-82
2022/04/01 01:48:24;;;;;;;5.53;3.78;;;2.60;99.90;;;;;;5053215;28;20056;-82
2022/04/01 01:56:18;;;;;;;4.50;3.05;;;2.70;99.90;;;;;;5053070;28;20025;-81
2022/04/01 01:58:55;;;;;;;3.75;3.10;;;2.60;99.90;;;;;;5053263;28;20064;-81
2022/04/01 02:01:22;;;;;;;4.55;3.47;;;2.60;99.90;;;;;;5054201;28;20025;-81
2022/04/01 02:03:47;;;;;;;4.80;3.20;;;2.50;99.90;;;;;;5053178;28;20162;-81
2022/04/01 02:06:13;;;;;;;4.70;3.67;;;2.60;99.90;;;;;;5054609;28;20103;-81
2022/04/01 02:08:40;;;;;;;3.38;2.63;;;2.60;99.90;;;;;;5052682;28;20064;-81
2022/04/01 02:11:08;;;;;;;4.85;3.47;;;2.50;99.90;;;;;;5052976;28;20163;-80
2022/04/01 02:13:34;;;;;;;2.83;2.50;;;2.50;99.90;;;;;;5052856;28;20021;-81
2022/04/01 02:16:01;;;;;;;3.63;2.50;;;2.50;99.90;;;;;;5054473;28;20066;-80
2022/04/01 02:18:27;;;;;;;4.57;3.70;;;2.40;99.90;;;;;;5052212;28;20028;-79
2022/04/01 02:20:53;;;;;;;4.28;3.10;;;2.50;99.90;;;;;;5052803;28;20409;-81
2022/04/01 02:23:19;;;;;;;3.65;2.88;;;2.40;99.90;;;;;;5052145;28;20032;-82
2022/04/01 02:25:45;;;;;;;3.38;3.08;;;2.50;99.90;;;;;;5052697;28;20052;-80
2022/04/01 02:28:12;;;;;;;4.25;3.40;;;2.50;99.90;;;;;;5052441;28;20025;-81
2022/04/01 02:30:39;;;;;;;3.58;3.08;;;2.60;99.90;;;;;;5052667;28;20384;-80
2022/04/01 02:33:25;;;;;;;5.03;3.20;;;2.60;99.90;;;;;;5053840;28;20103;-79
2022/04/01 02:35:59;;;;;;;3.97;3.10;;;2.60;99.90;;;;;;5052026;28;20025;-81
2022/04/01 02:38:27;;;;;;;3.45;2.80;;;2.50;99.90;;;;;;5051732;28;20382;-81
2022/04/01 02:40:55;;;;;;;3.90;2.95;;;2.50;99.90;;;;;;5052102;28;20020;-81
2022/04/01 02:43:22;;;;;;;3.38;2.92;;;2.40;99.90;;;;;;5052205;28;20470;-82
2022/04/01 02:45:49;;;;;;;3.15;2.70;;;2.40;99.90;;;;;;5052021;28;20028;-82
2022/04/01 02:48:18;;;;;;;4.80;3.40;;;2.50;99.90;;;;;;5051986;28;20086;-82
2022/04/01 02:51:07;;;;;;;4.43;2.95;;;2.40;99.90;;;;;;5053275;28;20041;-82
2022/04/01 02:53:33;;;;;;;5.20;2.90;;;2.40;99.90;;;;;;5051709;28;20079;-82
2022/04/01 02:55:59;;;;;;;4.43;3.45;;;2.50;99.90;;;;;;5050158;28;20424;-81
2022/04/01 02:58:24;;;;;;;3.83;3.38;;;2.40;99.90;;;;;;5031239;28;20064;-79
2022/04/01 03:00:51;;;;;;;3.30;3.00;;;2.40;99.90;;;;;;5031700;28;20511;-82
2022/04/01 03:03:17;;;;;;;3.10;2.80;;;2.40;99.90;;;;;;5046384;28;20029;-82
2022/04/01 03:05:43;;;;;;;5.35;3.85;;;2.40;99.90;;;;;;5053115;28;20131;-81
2022/04/01 03:08:09;;;;;;;3.92;3.35;;;2.40;99.90;;;;;;5051658;28;20033;-81
2022/04/01 03:10:38;;;;;;;3.40;3.08;;;2.40;99.90;;;;;;5051651;28;20029;-81
2022/04/01 03:13:07;;;;;;;3.88;3.22;;;2.50;99.90;;;;;;5051849;28;20048;-81
2022/04/01 03:15:51;;;;;;;5.97;4.70;;;2.40;99.90;;;;;;5053163;28;20079;-81
2022/04/01 03:18:40;;;;;;;5.88;4.25;;;2.40;99.90;;;;;;5052747;28;20044;-80
2022/04/01 03:21:10;;;;;;;4.20;3.50;;;2.30;99.90;;;;;;5051377;28;20025;-80
2022/04/01 03:23:43;;;;;;;3.25;2.55;;;2.30;99.90;;;;;;5051690;28;20538;-79
2022/04/01 03:26:11;;;;;;;4.00;3.17;;;2.30;99.90;;;;;;5051221;28;20031;-81
2022/04/01 03:28:51;;;;;;;4.82;3.30;;;2.30;99.90;;;;;;5051570;28;20067;-82
2022/04/01 03:31:17;;;;;;;2.95;2.63;;;2.40;99.90;;;;;;5047053;28;20120;-81
2022/04/01 03:33:43;;;;;;;3.47;2.88;;;2.30;99.90;;;;;;5041535;28;20115;-82
2022/04/01 03:36:09;;;;;;;3.95;3.03;;;2.40;99.90;;;;;;5051442;28;20030;-82
2022/04/01 03:38:40;;;;;;;3.40;3.10;;;2.40;99.90;;;;;;5050990;28;20036;-81
2022/04/01 03:41:11;;;;;;;2.58;2.35;;;2.30;99.90;;;;;;5050375;28;20028;-82
2022/04/01 03:43:37;;;;;;;3.90;3.17;;;2.30;99.90;;;;;;5034463;28;20381;-82
2022/04/01 03:46:15;;;;;;;3.70;3.30;;;2.30;99.90;;;;;;5034189;28;20022;-82
2022/04/01 03:48:47;;;;;;;4.80;3.80;;;2.40;99.90;;;;;;5046762;28;20112;-78
2022/04/01 03:51:17;;;;;;;4.03;3.38;;;2.30;99.90;;;;;;5030640;28;20116;-80
2022/04/01 03:53:51;;;;;;;5.78;4.28;;;2.30;99.90;;;;;;5030571;28;20029;-80
2022/04/01 03:56:23;;;;;;;5.07;3.97;;;2.30;99.90;;;;;;5031476;28;20041;-80
2022/04/01 03:59:09;;;;;;;5.30;4.03;;;2.30;99.90;;;;;;5032318;28;20092;-79
2022/04/01 04:02:07;;;;;;;4.03;3.50;;;2.30;99.90;;;;;;5035460;28;20039;-79
2022/04/01 04:04:36;;;;;;;4.47;3.60;;;2.40;99.90;;;;;;5047605;28;20474;-80
2022/04/01 04:07:06;;;;;;;4.35;3.63;;;2.10;99.90;;;;;;5045421;28;20029;-79
2022/04/01 04:09:41;;;;;;;6.85;4.72;;;2.10;99.90;;;;;;5050513;28;20061;-79
2022/04/01 04:12:12;;;;;;;6.30;4.80;;;2.10;99.90;;;;;;5044198;28;20035;-81
2022/04/01 04:14:42;;;;;;;8.40;4.20;;;2.10;99.90;;;;;;5030858;28;20037;-84
2022/04/01 04:17:14;;;;;;;5.50;4.30;;;2.10;99.90;;;;;;5033892;28;20017;-81
2022/04/01 04:19:51;;;;;;;9.95;6.28;;;2.10;99.90;;;;;;5030990;28;20401;-81
2022/04/01 04:22:24;;;;;;;6.15;5.25;;;2.20;99.90;;;;;;5031012;28;20481;-75
2022/04/01 04:25:10;;;;;;;7.38;5.25;;;2.30;99.90;;;;;;5035349;28;20108;-81
2022/04/01 04:27:40;;;;;;;11.80;6.10;;;2.30;99.90;;;;;;5035014;28;20385;-80
2022/04/01 04:30:09;;;;;;;7.35;5.00;;;2.30;99.90;;;;;;5028644;28;20093;-81
2022/04/01 04:32:56;;;;;;;8.85;6.43;;;2.30;99.90;;;;;;5030826;28;20028;-81
2022/04/01 04:35:26;;;;;;;13.27;6.45;;;2.30;99.90;;;;;;5030873;28;20064;-80
2022/04/01 04:37:56;;;;;;;7.95;6.90;;;2.20;99.90;;;;;;5030846;28;20037;-82
2022/04/01 04:40:21;;;;;;;15.32;7.95;;;2.20;99.90;;;;;;5031971;28;20036;-80
2022/04/01 04:42:58;;;;;;;10.20;7.65;;;2.10;99.90;;;;;;5032523;28;20112;-82
2022/04/01 04:45:26;;;;;;;9.07;5.65;;;1.90;99.90;;;;;;5035972;28;20104;-83
2022/04/01 04:47:55;;;;;;;8.52;6.90;;;1.90;99.90;;;;;;5046674;28;20040;-83
2022/04/01 04:50:23;;;;;;;7.70;5.95;;;2.00;99.90;;;;;;5054516;28;20381;-83
2022/04/01 04:52:51;;;;;;;8.55;6.60;;;2.00;99.90;;;;;;5054426;28;20554;-83
2022/04/01 04:55:18;;;;;;;8.20;6.18;;;2.10;99.90;;;;;;5054461;28;20024;-83
2022/04/01 04:58:10;;;;;;;11.43;7.18;;;2.10;99.90;;;;;;5049821;28;20053;-81
2022/04/01 05:00:53;;;;;;;10.07;6.95;;;1.90;99.90;;;;;;5054563;28;20032;-82
2022/04/01 05:03:47;;;;;;;9.80;7.93;;;2.00;99.90;;;;;;5054014;28;20040;-82
2022/04/01 05:06:17;;;;;;;7.93;6.38;;;2.00;99.90;;;;;;5054116;28;20036;-82
2022/04/01 05:09:34;;;;;;;14.35;7.85;;;2.10;99.90;;;;;;5055426;28;20044;-80
2022/04/01 05:12:40;;;;;;;7.50;6.32;;;2.00;99.90;;;;;;5054176;28;20060;-82
2022/04/01 05:15:40;;;;;;;7.70;5.45;;;1.90;99.90;;;;;;5033000;28;20466;-84
2022/04/01 05:18:21;;;;;;;9.63;5.82;;;1.90;99.90;;;;;;5055043;28;20025;-83
2022/04/01 05:20:56;;;;;;;10.88;8.32;;;1.80;99.90;;;;;;5055657;28;20474;-84
2022/04/01 05:23:35;;;;;;;7.10;5.43;;;1.80;99.90;;;;;;5055432;28;20028;-83
2022/04/01 05:26:13;;;;;;;5.88;4.97;;;1.80;99.90;;;;;;5056012;28;20056;-84
2022/04/01 05:29:02;;;;;;;9.32;6.18;;;1.80;99.90;;;;;;5055682;28;20119;-83
2022/04/01 05:32:05;;;;;;;7.90;5.45;;;1.90;99.90;;;;;;5055132;28;20025;-83
2022/04/01 05:34:37;;;;;;;7.35;6.15;;;2.00;99.90;;;;;;5046063;28;20094;-83
2022/04/01 05:37:04;;;;;;;8.15;6.28;;;1.90;99.90;;;;;;5054259;28;20041;-84
2022/04/01 05:39:34;;;;;;;8.55;5.35;;;1.80;99.90;;;;;;5055040;28;20512;-84
2022/04/01 05:42:07;;;;;;;8.40;5.53;;;1.90;99.90;;;;;;5054624;28;20052;-84
2022/04/01 05:44:38;;;;;;;7.32;5.72;;;2.00;99.90;;;;;;5055750;28;20040;-83
2022/04/01 05:47:07;;;;;;;7.28;5.63;;;2.00;99.90;;;;;;5055088;28;20036;-84
2022/04/01 05:49:38;;;;;;;9.38;5.93;;;2.10;99.90;;;;;;5055258;28;20398;-82
2022/04/01 05:52:05;;;;;;;4.95;4.03;;;2.10;99.90;;;;;;5057229;28;20021;-84
2022/04/01 05:54:34;;;;;;;6.85;5.25;;;2.10;99.90;;;;;;5059009;28;20044;-83
2022/04/01 05:57:01;;;;;;;9.95;5.32;;;2.00;99.90;;;;;;5056092;28;20024;-84
2022/04/01 05:59:27;;;;;;;6.88;5.47;;;2.00;99.90;;;;;;5058250;28;20114;-84
2022/04/01 06:02:20;;;;;;;7.55;5.88;;;2.10;99.90;;;;;;5055341;28;20413;-81
2022/04/01 06:05:18;;;;;;;6.35;5.22;;;2.10;99.90;;;;;;5055097;28;20156;-83
2022/04/01 06:07:50;;;;;;;6.13;4.93;;;2.10;99.90;;;;;;5039255;28;20080;-82
2022/04/01 06:10:39;;;;;;;8.05;5.95;;;2.10;99.90;;;;;;5059013;28;20067;-80
2022/04/01 06:14:09;;;;;;;5.93;4.75;;;2.10;99.90;;;;;;5036827;28;20037;-74
2022/04/01 06:17:07;;;;;;;9.90;5.90;;;2.10;99.90;;;;;;5056209;28;20060;-84
2022/04/01 06:19:46;;;;;;;8.50;5.25;;;2.00;99.90;;;;;;5053878;28;20393;-83
2022/04/01 06:22:20;;;;;;;7.75;5.88;;;2.00;99.90;;;;;;5037845;28;20116;-83
2022/04/01 06:25:10;;;;;;;8.05;5.65;;;1.90;99.90;;;;;;5055208;28;20481;-84
2022/04/01 06:27:42;;;;;;;7.03;5.15;;;2.00;99.90;;;;;;5053516;28;20036;-83
2022/04/01 06:30:14;;;;;;;6.95;4.75;;;2.00;99.90;;;;;;5054615;28;20346;-83
2022/04/01 06:32:55;;;;;;;11.15;7.90;;;2.00;99.90;;;;;;5053601;28;20545;-82
2022/04/01 06:35:50;;;;;;;;;;;2.10;99.90;;;;;;5054766;28;20111;-82
2022/04/01 06:38:49;;;;;;;13.95;5.70;;;2.10;99.90;;;;;;5052353;28;19925;-83
2022/04/01 06:41:18;;;;;;;7.35;5.50;;;2.30;99.90;;;;;;5053681;28;20436;-83
2022/04/01 06:43:53;;;;;;;11.27;5.38;;;2.20;99.90;;;;;;5036661;28;20059;-76
2022/04/01 06:46:37;;;;;;;8.70;5.43;;;2.20;99.90;;;;;;5053689;28;20067;-82
2022/04/01 06:49:09;;;;;;;8.52;5.90;;;2.20;99.90;;;;;;5052379;28;20555;-79
2022/04/01 06:51:46;;;;;;;9.07;5.38;;;2.20;99.90;;;;;;5053714;28;20033;-83
2022/04/01 06:54:24;;;;;;;8.05;5.35;;;2.10;99.90;;;;;;5053455;28;20040;-81
2022/04/01 06:57:08;;;;;;;6.82;4.75;;;2.10;99.90;;;;;;5053506;28;20043;-78
2022/04/01 06:59:54;;;;;;;7.30;5.35;;;2.10;99.90;;;;;;5052868;28;20516;-83
2022/04/01 07:02:20;;;;;;;8.07;5.15;;;2.20;99.90;;;;;;5052072;28;20104;-82
2022/04/01 07:04:45;;;;;;;10.23;5.22;;;2.10;99.90;;;;;;5052815;28;20490;-78
2022/04/01 07:07:11;;;;;;;6.68;4.85;;;2.20;99.90;;;;;;5052869;28;20021;-75
2022/04/01 07:09:37;;;;;;;7.57;4.68;;;2.20;99.90;;;;;;5035245;28;20447;-79
2022/04/01 07:12:03;;;;;;;6.35;4.68;;;2.20;99.90;;;;;;5053208;28;20108;-76
2022/04/01 07:14:31;;;;;;;7.93;4.82;;;2.30;99.90;;;;;;5034876;28;20052;-79
2022/04/01 07:16:58;;;;;;;8.48;4.82;;;2.20;99.90;;;;;;5053065;28;20041;-79
2022/04/01 07:19:24;;;;;;;6.10;4.22;;;2.20;99.90;;;;;;5052708;28;20087;-79
2022/04/01 07:21:50;;;;;;;11.18;4.47;;;2.20;99.90;;;;;;5052852;28;20120;-79
2022/04/01 07:24:16;;;;;;;8.70;4.60;;;2.20;99.90;;;;;;5052332;28;20111;-78
2022/04/01 07:26:43;;;;;;;5.20;4.40;;;2.20;99.90;;;;;;5052668;28;20063;-80
2022/04/01 07:29:08;;;;;;;5.80;3.78;;;2.20;99.90;;;;;;5052568;28;20105;-79
2022/04/01 07:34:36;;;;;;;6.15;3.97;;;2.30;99.90;;;;;;5052754;28;20029;-78
2022/04/01 07:37:02;;;;;;;6.22;4.25;;;2.10;99.90;;;;;;5052631;28;20048;-78
2022/04/01 07:39:28;;;;;;;8.52;4.55;;;2.10;99.90;;;;;;5052889;28;20448;-79
2022/04/01 07:41:54;;;;;;;7.35;4.55;;;2.10;99.90;;;;;;5052478;28;20037;-75
2022/04/01 07:44:22;;;;;;;6.13;4.57;;;2.10;99.90;;;;;;5051637;28;20108;-78
2022/04/01 07:46:48;;;;;;;7.47;4.57;;;2.10;99.90;;;;;;5052435;28;20025;-78
2022/04/01 07:49:15;;;;;;;7.78;4.50;;;2.20;99.90;;;;;;5052983;28;20073;-78
2022/04/01 07:51:41;;;;;;;11.27;4.45;;;2.20;99.90;;;;;;5052766;28;20040;-79
2022/04/01 07:54:06;;;;;;;11.02;4.35;;;2.20;99.90;;;;;;5034728;28;20021;-79
2022/04/01 07:56:32;;;;;;;8.85;4.28;;;2.20;99.90;;;;;;5052225;28;20048;-79
2022/04/01 07:58:58;;;;;;;6.13;3.67;;;2.20;99.90;;;;;;5052493;28;20041;-79
2022/04/01 08:01:24;;;;;;;6.93;4.38;;;2.20;99.90;;;;;;5052410;28;20017;-79
2022/04/01 08:03:50;;;;;;;6.88;3.78;;;2.20;99.90;;;;;;5052169;28;20033;-79
2022/04/01 08:06:16;;;;;;;5.68;3.50;;;2.20;99.90;;;;;;5052713;28;20032;-79
2022/04/01 08:08:41;;;;;;;6.70;3.70;;;2.20;99.90;;;;;;5052598;28;20438;-79
2022/04/01 08:11:07;;;;;;;8.43;3.88;;;2.20;99.90;;;;;;5052085;28;20033;-79
2022/04/01 08:13:33;;;;;;;8.82;4.82;;;2.20;99.90;;;;;;5052326;28;20119;-79
2022/04/01 08:16:00;;;;;;;8.32;4.18;;;2.20;99.90;;;;;;5052278;28;20539;-79
2022/04/01 08:18:27;;;;;;;7.90;3.92;;;2.30;99.90;;;;;;5055479;28;20107;-78
2022/04/01 08:20:53;;;;;;;9.73;4.53;;;2.30;99.90;;;;;;5056209;28;20040;-79
2022/04/01 08:23:19;;;;;;;7.40;4.32;;;2.30;99.90;;;;;;5056188;28;20044;-78
2022/04/01 08:25:46;;;;;;;9.52;4.82;;;2.50;99.90;;;;;;5055823;28;20032;-80
2022/04/01 08:28:12;;;;;;;7.60;4.40;;;2.50;99.90;;;;;;5056114;28;20025;-79
2022/04/01 08:30:40;;;;;;;7.70;3.72;;;2.50;99.90;;;;;;5056149;28;20116;-79
2022/04/01 08:33:06;;;;;;;9.85;4.05;;;2.50;99.90;;;;;;5054876;28;20580;-80
2022/04/01 08:35:33;;;;;;;7.55;4.03;;;2.50;99.90;;;;;;5055789;28;20468;-80
2022/04/01 08:38:00;;;;;;;18.95;5.95;;;2.40;99.90;;;;;;5055856;28;20040;-77
2022/04/01 08:40:27;;;;;;;8.27;4.55;;;2.50;99.90;;;;;;5054585;28;20098;-80
2022/04/01 08:42:53;;;;;;;8.52;4.57;;;2.60;99.90;;;;;;5055449;28;20485;-80
2022/04/01 08:45:20;;;;;;;8.52;4.53;;;2.70;99.90;;;;;;5054446;28;20028;-80
2022/04/01 08:47:48;;;;;;;15.18;4.40;;;2.60;99.90;;;;;;5055091;28;20033;-79
2022/04/01 08:50:14;;;;;;;6.40;4.32;;;2.70;99.90;;;;;;5055581;28;20028;-78
2022/04/01 08:52:40;;;;;;;9.00;5.88;;;2.80;99.90;;;;;;5054266;28;20025;-80
2022/04/01 08:55:10;;;;;;;7.38;3.75;;;3.00;99.90;;;;;;5054084;28;20505;-80
2022/04/01 08:57:41;;;;;;;6.35;4.47;;;2.80;99.90;;;;;;5054245;28;20086;-80
2022/04/01 09:00:13;;;;;;;9.25;4.40;;;2.80;99.90;;;;;;5054452;28;20041;-80
2022/04/01 09:02:40;;;;;;;7.00;4.43;;;2.80;99.90;;;;;;5054151;28;20013;-80
2022/04/01 09:05:07;;;;;;;5.75;4.13;;;2.90;99.90;;;;;;5055540;28;20025;-82
2022/04/01 09:07:34;;;;;;;14.57;4.38;;;2.70;99.90;;;;;;5055269;28;20393;-81
2022/04/01 09:10:08;;;;;;;6.25;3.92;;;2.70;99.90;;;;;;5054954;28;20032;-80
2022/04/01 09:12:35;;;;;;;5.32;3.88;;;2.70;99.90;;;;;;5054067;28;20037;-80
2022/04/01 09:15:03;;;;;;;5.93;3.95;;;2.60;99.90;;;;;;5055203;28;20024;-79
2022/04/01 09:17:43;;;;;;;12.25;4.43;;;2.60;99.90;;;;;;5055278;28;20048;-80
2022/04/01 09:20:10;;;;;;;6.97;3.90;;;2.70;99.90;;;;;;5055359;28;20496;-80
2022/04/01 09:22:37;;;;;;;11.55;4.53;;;2.80;99.90;;;;;;5055192;28;20082;-80
2022/04/01 09:25:06;;;;;;;8.88;4.00;;;2.80;99.90;;;;;;5053529;28;20512;-80
2022/04/01 09:27:47;;;;;;;6.65;3.13;;;2.80;99.90;;;;;;5054983;28;20025;-80
2022/04/01 09:30:21;;;;;;;5.75;2.95;;;2.60;99.90;;;;;;5053659;28;20028;-80
2022/04/01 09:32:53;;;;;;;7.28;2.75;;;2.60;99.90;;;;;;5053243;28;20053;-81
2022/04/01 09:35:24;;;;;;;9.20;2.63;;;2.70;99.90;;;;;;5054858;28;20373;-81
2022/04/01 09:37:58;;;;;;;4.35;2.70;;;2.80;99.90;;;;;;5054456;28;20095;-78
2022/04/01 09:40:24;;;;;;;11.32;4.43;;;2.90;99.90;;;;;;5054866;28;20062;-81
2022/04/01 09:42:55;;;;;;;9.13;4.90;;;3.20;99.90;;;;;;5054939;28;20478;-81
2022/04/01 09:45:24;;;;;;;4.40;2.90;;;3.40;99.90;;;;;;5054730;28;20043;-80
2022/04/01 09:48:09;;;;;;;5.10;2.95;;;3.40;99.90;;;;;;5054568;28;20021;-81
2022/04/01 09:50:40;;;;;;;4.70;2.80;;;3.50;99.90;;;;;;5054796;28;20065;-81
2022/04/01 09:53:11;;;;;;;12.70;2.47;;;3.60;99.90;;;;;;5054142;28;20025;-81
2022/04/01 09:55:39;;;;;;;6.68;2.95;;;3.50;99.90;;;;;;5055293;28;20080;-83
2022/04/01 09:58:06;;;;;;;4.60;2.85;;;3.60;99.90;;;;;;5052160;28;20382;-81
2022/04/01 10:00:33;;;;;;;5.78;2.03;;;3.70;99.90;;;;;;5054269;28;20037;-82
2022/04/01 10:02:59;;;;;;;5.07;2.17;;;3.80;99.90;;;;;;5054465;28;20025;-79
2022/04/01 10:05:28;;;;;;;6.57;2.83;;;3.80;99.90;;;;;;5043775;28;20037;-86
2022/04/01 10:07:56;;;;;;;6.07;2.33;;;3.90;99.90;;;;;;5034318;28;20100;-77
2022/04/01 10:10:23;;;;;;;4.78;2.42;;;3.80;99.90;;;;;;5033121;28;20026;-77
2022/04/01 10:12:50;;;;;;;4.35;2.70;;;3.80;99.90;;;;;;5031846;28;20033;-78
2022/04/01 10:15:17;;;;;;;4.72;2.42;;;3.90;99.90;;;;;;5033530;28;20083;-79
2022/04/01 10:17:43;;;;;;;4.47;2.35;;;4.00;99.90;;;;;;5033756;28;20033;-75
2022/04/01 10:20:12;;;;;;;7.05;2.50;;;4.20;99.90;;;;;;5031891;28;20092;-73
2022/04/01 10:22:40;;;;;;;6.88;2.50;;;4.20;99.90;;;;;;5031341;28;20033;-72
2022/04/01 10:25:30;;;;;;;4.88;2.53;;;4.20;99.90;;;;;;5032932;28;20033;-75
2022/04/01 10:28:01;;;;;;;3.95;2.20;;;4.30;99.90;;;;;;5032815;28;20036;-72
2022/04/01 10:30:28;;;;;;;5.05;2.60;;;4.30;99.90;;;;;;5033120;28;20108;-73
2022/04/01 10:32:54;;;;;;;3.97;1.98;;;4.30;99.90;;;;;;5031856;28;20067;-71
2022/04/01 10:35:25;;;;;;;6.88;2.58;;;4.30;99.90;;;;;;5032575;28;20041;-76
2022/04/01 10:38:14;;;;;;;3.70;2.22;;;4.30;99.90;;;;;;5033936;28;20445;-83
2022/04/01 10:40:42;;;;;;;5.43;2.67;;;4.30;99.90;;;;;;5046586;28;20105;-78
2022/04/01 10:43:11;;;;;;;8.88;2.67;;;4.50;99.90;;;;;;5033057;28;20388;-80
2022/04/01 10:45:39;;;;;;;4.07;2.08;;;4.60;99.90;;;;;;5036413;28;20091;-77
2022/04/01 10:51:37;;;;;;;10.65;2.38;;;4.20;99.90;;;;;;5032506;28;20026;-76
2022/04/01 10:54:22;;;;;;;;;;;4.30;99.90;;;;;;5033973;28;20029;-79
2022/04/01 10:57:05;;;;;;;5.22;2.42;;;4.30;99.90;;;;;;5031328;28;19909;-80
2022/04/01 10:59:50;;;;;;;11.60;3.10;;;3.90;99.90;;;;;;5031347;28;20041;-80
2022/04/01 11:02:20;;;;;;;4.63;2.10;;;4.10;99.90;;;;;;5037035;28;20043;-78
2022/04/01 11:04:48;;;;;;;9.05;2.88;;;4.40;99.90;;;;;;5052400;28;20060;-79
2022/04/01 11:07:22;;;;;;;6.70;2.30;;;4.60;99.90;;;;;;5052640;28;20116;-79
2022/04/01 11:09:55;;;;;;;5.38;1.75;;;4.80;99.90;;;;;;5053198;28;20082;-79
2022/04/01 11:12:36;;;;;;;4.60;1.60;;;4.80;99.90;;;;;;5054238;28;20078;-79
2022/04/01 11:15:12;;;;;;;6.18;2.17;;;5.20;99.90;;;;;;5053665;28;20024;-79
2022/04/01 11:17:37;;;;;;;29.85;2.83;;;5.30;99.90;;;;;;5053364;28;20025;-78
2022/04/01 11:20:32;;;;;;;14.93;4.70;;;5.50;99.90;;;;;;5052741;28;20437;-78
2022/04/01 11:23:03;;;;;;;5.03;2.55;;;5.40;99.90;;;;;;5053268;28;20036;-79
2022/04/01 11:25:31;;;;;;;7.28;1.92;;;5.50;99.90;;;;;;5052845;28;20437;-78
2022/04/01 11:27:57;;;;;;;5.38;2.13;;;5.50;99.90;;;;;;5052634;28;20047;-79
2022/04/01 11:30:25;;;;;;;3.88;1.98;;;5.40;99.90;;;;;;5052881;28;20032;-80
2022/04/01 11:32:57;;;;;;;4.95;2.20;;;5.30;99.90;;;;;;5053748;28;20036;-79
2022/04/01 11:35:29;;;;;;;6.50;2.00;;;5.50;99.90;;;;;;5052645;28;20056;-79
2022/04/01 11:37:54;;;;;;;;;;;5.30;99.90;;;;;;5053174;28;20090;-79
2022/04/01 11:40:26;;;;;;;3.40;2.00;;;5.40;99.90;;;;;;5052541;28;19916;-79
2022/04/01 11:42:56;;;;;;;2.70;2.10;;;5.30;99.90;;;;;;5051455;28;20499;-79
2022/04/01 11:45:24;;;;;;;9.15;2.60;;;5.50;99.90;;;;;;5052478;28;20489;-78
2022/04/01 11:47:50;;;;;;;8.07;2.92;;;5.40;99.90;;;;;;5052668;28;20558;-79
2022/04/01 11:50:18;;;;;;;9.55;2.63;;;5.40;99.90;;;;;;5052233;28;20102;-79
2022/04/01 11:52:47;;;;;;;7.28;2.70;;;5.50;99.90;;;;;;5053167;28;20044;-78
2022/04/01 11:55:19;;;;;;;4.28;2.20;;;5.50;99.90;;;;;;5056640;28;20029;-79
2022/04/01 11:57:46;;;;;;;;;;;5.40;99.90;;;;;;5057105;28;20047;-78
2022/04/01 12:00:17;;;;;;;5.28;2.28;;;5.40;99.90;;;;;;5056598;28;19920;-79
2022/04/01 12:02:44;;;;;;;3.70;2.50;;;5.60;99.90;;;;;;5056263;28;20389;-79
2022/04/01 12:05:11;;;;;;;4.72;2.60;;;5.40;99.90;;;;;;5056228;28;20029;-77
2022/04/01 12:10:22;;;;;;;6.95;2.72;;;5.50;99.90;;;;;;5056322;28;20080;-79
2022/04/01 12:12:58;;;;;;;4.38;2.10;;;5.40;99.90;;;;;;5056521;28;20096;-78
2022/04/01 12:15:38;;;;;;;4.85;2.40;;;5.00;99.90;;;;;;5054728;28;20021;-78
2022/04/01 12:18:29;;;;;;;5.28;2.10;;;5.00;99.90;;;;;;5055816;28;20078;-79
2022/04/01 12:20:57;;;;;;;9.38;2.67;;;5.10;99.90;;;;;;5056303;28;20029;-80
2022/04/01 12:23:26;;;;;;;4.20;2.50;;;4.80;99.90;;;;;;5056038;28;20390;-79
2022/04/01 12:25:54;;;;;;;3.20;1.88;;;4.80;99.90;;;;;;5056588;28;20029;-78
2022/04/01 12:28:24;;;;;;;8.38;3.03;;;4.60;99.90;;;;;;5056262;28;20449;-79
2022/04/01 12:30:52;;;;;;;3.50;2.00;;;4.60;99.90;;;;;;5038251;28;20047;-79
2022/04/01 12:33:30;;;;;;;5.80;2.88;;;4.80;99.90;;;;;;5054527;28;20036;-79
2022/04/01 12:36:06;;;;;;;4.25;2.33;;;4.90;99.90;;;;;;5056161;28;20068;-79
2022/04/01 12:38:37;;;;;;;6.80;3.08;;;5.00;99.90;;;;;;5054652;28;20047;-79
2022/04/01 12:41:05;;;;;;;4.10;2.53;;;5.20;99.90;;;;;;5055975;28;20033;-79
2022/04/01 12:43:46;;;;;;;8.02;2.97;;;4.80;99.90;;;;;;5055981;28;20057;-79
2022/04/01 12:46:23;;;;;;;3.75;2.50;;;4.90;99.90;;;;;;5055488;28;20032;-79
2022/04/01 12:49:00;;;;;;;4.80;2.25;;;5.00;99.90;;;;;;5036050;28;20038;-79
2022/04/01 12:51:36;;;;;;;4.50;2.85;;;5.20;99.90;;;;;;5035837;28;20049;-79
2022/04/01 12:54:12;;;;;;;2.90;1.90;;;5.30;99.90;;;;;;5035979;28;20466;-79
2022/04/01 12:56:38;;;;;;;3.53;2.25;;;5.30;99.90;;;;;;5035822;28;20030;-79
2022/04/01 12:59:10;;;;;;;5.47;2.58;;;5.50;99.90;;;;;;5035690;28;20394;-80
2022/04/01 13:01:38;;;;;;;7.55;2.90;;;5.40;99.90;;;;;;5035308;28;20075;-79
2022/04/01 13:04:07;;;;;;;5.57;2.38;;;5.20;99.90;;;;;;5054929;28;20021;-79
2022/04/01 13:06:33;;;;;;;7.03;2.80;;;5.30;99.90;;;;;;5055679;28;20126;-79
2022/04/01 13:09:00;;;;;;;8.73;3.15;;;5.40;99.90;;;;;;5055593;28;20033;-79
2022/04/01 13:11:41;;;;;;;6.88;2.95;;;5.30;99.90;;;;;;5055108;28;20358;-79
2022/04/01 13:14:21;;;;;;;8.05;2.85;;;5.40;99.90;;;;;;5055241;28;20474;-79
2022/04/01 13:16:48;;;;;;;2.90;2.13;;;5.60;99.90;;;;;;5055128;28;20044;-78
2022/04/01 13:19:29;;;;;;;6.80;2.65;;;5.50;99.90;;;;;;5054016;28;20123;-79
2022/04/01 13:21:57;;;;;;;3.63;2.78;;;5.30;99.90;;;;;;5055219;28;20040;-79
2022/04/01 13:24:26;;;;;;;7.90;2.83;;;5.30;99.90;;;;;;5055102;28;20036;-79
2022/04/01 13:26:52;;;;;;;8.65;2.42;;;5.60;99.90;;;;;;5054856;28;20037;-79
2022/04/01 13:29:19;;;;;;;5.18;2.80;;;5.50;99.90;;;;;;5055138;28;20021;-79
2022/04/01 13:31:45;;;;;;;7.32;3.30;;;5.30;99.90;;;;;;5054877;28;20056;-78
2022/04/01 13:34:11;;;;;;;9.98;3.35;;;5.20;99.90;;;;;;5053696;28;20047;-78